createdAt,value
2022-10-22T00:03:14.723Z,73.00
2022-10-22T00:05:41.472Z,73.00
2022-10-22T00:08:08.236Z,73.00
2022-10-22T00:10:37.159Z,73.90
2022-10-22T00:13:04.669Z,73.80
2022-10-22T00:15:31.526Z,74.40
2022-10-22T00:20:25.478Z,74.50
2022-10-22T00:30:14.269Z,75.30
2022-10-22T00:37:36.073Z,74.20
2022-10-22T00:40:03.724Z,64.60
2022-10-22T00:42:30.721Z,75.00
2022-10-22T00:45:06.067Z,75.30
2022-10-22T00:47:37.630Z,59.10
2022-10-22T00:50:08.112Z,74.10
2022-10-22T00:52:35.725Z,74.90
2022-10-22T00:55:02.817Z,69.10
2022-10-22T00:59:57.714Z,74.50
2022-10-22T01:02:24.701Z,74.30
2022-10-22T01:07:21.731Z,59.20
2022-10-22T01:10:20.004Z,74.80
2022-10-22T01:13:03.725Z,75.10
2022-10-22T01:15:55.703Z,74.00
2022-10-22T01:18:48.508Z,57.20
2022-10-22T01:21:27.045Z,74.20
2022-10-22T01:24:14.546Z,62.50
2022-10-22T01:27:00.889Z,75.00
2022-10-22T01:32:00.957Z,74.90
2022-10-22T01:34:30.047Z,74.50
2022-10-22T01:36:59.217Z,74.30
2022-10-22T01:39:28.794Z,75.70
2022-10-22T01:41:57.009Z,74.60
2022-10-22T01:47:15.490Z,74.80
2022-10-22T01:50:11.316Z,70.50
2022-10-22T01:52:56.245Z,75.00
2022-10-22T01:58:07.994Z,75.00
2022-10-22T02:00:38.443Z,59.40
2022-10-22T02:03:23.657Z,75.00
2022-10-22T02:05:56.812Z,75.90
2022-10-22T02:08:32.260Z,57.80
2022-10-22T02:11:01.014Z,60.50
2022-10-22T02:13:44.836Z,75.20
2022-10-22T02:16:16.760Z,75.80
2022-10-22T02:18:46.291Z,60.70
2022-10-22T02:26:19.476Z,77.40
2022-10-22T02:28:59.647Z,77.10
2022-10-22T02:31:30.965Z,61.20
2022-10-22T02:34:02.953Z,76.40
2022-10-22T02:36:30.165Z,77.40
2022-10-22T02:38:58.784Z,77.30
2022-10-22T02:41:25.707Z,63.80
2022-10-22T02:43:55.507Z,61.70
2022-10-22T02:46:23.494Z,61.30
2022-10-22T02:48:51.055Z,76.60
2022-10-22T02:53:45.178Z,77.80
2022-10-22T02:56:12.597Z,77.40
2022-10-22T02:58:39.404Z,77.90
2022-10-22T03:03:33.533Z,78.00
2022-10-22T03:06:00.355Z,78.20
2022-10-22T03:08:27.172Z,77.80
2022-10-22T03:13:21.338Z,77.40
2022-10-22T03:15:51.354Z,77.20
2022-10-22T03:20:45.605Z,78.40
2022-10-22T03:23:17.803Z,62.30
2022-10-22T03:25:46.691Z,62.30
2022-10-22T03:28:15.504Z,78.10
2022-10-22T03:30:42.350Z,77.30
2022-10-22T03:33:09.138Z,69.90
2022-10-22T03:35:42.160Z,78.00
2022-10-22T03:38:09.122Z,77.50
2022-10-22T03:45:30.784Z,77.80
2022-10-22T03:47:57.966Z,78.00
2022-10-22T04:02:42.505Z,69.60
2022-10-22T04:12:32.182Z,77.50
2022-10-22T04:19:53.539Z,78.10
2022-10-22T04:27:15.041Z,66.10
2022-10-22T04:29:42.111Z,77.30
2022-10-22T04:37:04.808Z,78.00
2022-10-22T04:39:31.627Z,77.10
2022-10-22T04:46:53.156Z,76.90
2022-10-22T04:49:20.271Z,78.00
2022-10-22T04:59:12.722Z,62.40
2022-10-22T05:01:44.216Z,62.10
2022-10-22T05:04:17.329Z,77.10
2022-10-22T05:06:45.001Z,78.10
2022-10-22T05:09:15.457Z,62.50
2022-10-22T05:11:48.784Z,62.40
2022-10-22T05:14:24.124Z,78.10
2022-10-22T05:19:23.968Z,62.50
2022-10-22T05:21:56.350Z,60.30
2022-10-22T05:26:51.370Z,62.30
2022-10-22T05:29:18.711Z,78.80
2022-10-22T05:36:40.611Z,77.80
2022-10-22T05:41:35.751Z,62.20
2022-10-22T05:46:33.722Z,63.00
2022-10-22T05:49:02.667Z,77.60
2022-10-22T05:51:32.013Z,79.10
2022-10-22T05:54:00.853Z,78.40
2022-10-22T05:56:29.753Z,63.00
2022-10-22T05:58:57.619Z,77.70
2022-10-22T06:01:27.829Z,62.80
2022-10-22T06:03:57.203Z,78.10
2022-10-22T06:08:52.777Z,62.60
2022-10-22T06:11:21.532Z,77.50
2022-10-22T06:13:49.494Z,79.40
2022-10-22T06:21:13.799Z,79.10
2022-10-22T06:23:42.117Z,77.90
2022-10-22T06:26:09.873Z,77.50
2022-10-22T06:28:37.141Z,77.30
2022-10-22T06:31:04.894Z,77.80
2022-10-22T06:33:34.244Z,62.10
2022-10-22T06:36:12.415Z,60.20
2022-10-22T06:41:10.117Z,77.20
2022-10-22T06:46:07.434Z,78.00
2022-10-22T06:51:05.680Z,62.70
2022-10-22T06:53:32.847Z,67.60
2022-10-22T07:01:20.362Z,66.10
2022-10-22T07:06:15.203Z,77.50
2022-10-22T07:11:12.985Z,77.60
2022-10-22T07:18:36.230Z,76.10
2022-10-22T07:21:03.927Z,77.20
2022-10-22T07:23:31.016Z,75.70
2022-10-22T07:28:25.652Z,76.60
2022-10-22T07:33:19.890Z,76.20
2022-10-22T07:35:46.747Z,75.70
2022-10-22T07:40:40.897Z,75.10
2022-10-22T07:43:07.722Z,76.00
2022-10-22T07:45:34.491Z,74.30
2022-10-22T07:48:02.324Z,70.90
2022-10-22T07:50:29.260Z,74.00
2022-10-22T07:55:25.773Z,74.00
2022-10-22T07:57:53.140Z,74.60
2022-10-22T08:00:23.087Z,63.50
2022-10-22T08:02:52.178Z,74.10
2022-10-22T08:05:19.286Z,72.70
2022-10-22T08:10:13.759Z,73.40
2022-10-22T08:12:41.866Z,73.70
2022-10-22T08:15:09.824Z,71.80
2022-10-22T08:20:04.627Z,71.40
2022-10-22T08:34:49.453Z,56.80
2022-10-22T08:37:17.702Z,70.80
2022-10-22T08:39:45.312Z,70.70
2022-10-22T08:42:27.517Z,69.60
2022-10-22T08:45:12.313Z,53.40
2022-10-22T08:48:04.039Z,69.90
2022-10-22T08:50:40.936Z,69.80
2022-10-22T08:53:14.709Z,54.80
2022-10-22T08:55:42.168Z,54.40
2022-10-22T08:58:45.191Z,54.70
2022-10-22T09:01:19.827Z,70.50
2022-10-22T09:03:58.816Z,70.70
2022-10-22T09:06:29.382Z,54.60
2022-10-22T09:08:58.645Z,54.40
2022-10-22T09:11:30.975Z,54.50
2022-10-22T09:13:59.654Z,54.60
2022-10-22T09:17:08.405Z,69.30
2022-10-22T09:19:52.941Z,51.20
2022-10-22T09:22:46.203Z,65.80
2022-10-22T09:25:27.006Z,60.00
2022-10-22T09:27:58.306Z,50.70
2022-10-22T09:30:30.719Z,65.40
2022-10-22T09:33:07.093Z,66.20
2022-10-22T09:35:43.723Z,50.00
2022-10-22T09:38:14.840Z,48.40
2022-10-22T09:40:47.465Z,64.40
2022-10-22T09:43:17.616Z,53.30
2022-10-22T09:45:45.888Z,47.50
2022-10-22T09:48:20.312Z,62.70
2022-10-22T09:50:54.847Z,62.50
2022-10-22T09:53:27.196Z,61.20
2022-10-22T10:01:00.808Z,58.80
2022-10-22T10:03:31.544Z,58.80
2022-10-22T10:06:03.127Z,41.70
2022-10-22T10:08:33.196Z,57.50
2022-10-22T10:11:09.665Z,57.70
2022-10-22T10:14:12.045Z,57.30
2022-10-22T10:16:53.267Z,57.30
2022-10-22T10:19:28.541Z,57.10
2022-10-22T10:22:17.235Z,57.00
2022-10-22T10:25:24.057Z,56.70
2022-10-22T10:27:58.161Z,48.50
2022-10-22T10:30:25.218Z,56.70
2022-10-22T10:35:25.209Z,58.50
2022-10-22T10:38:11.426Z,58.10
2022-10-22T10:40:46.550Z,56.40
2022-10-22T10:43:48.475Z,38.30
2022-10-22T10:46:25.502Z,54.50
2022-10-22T10:48:57.247Z,54.40
2022-10-22T10:51:47.058Z,38.30
2022-10-22T10:54:36.301Z,56.00
2022-10-22T10:57:32.704Z,54.90
2022-10-22T11:00:22.354Z,56.10
2022-10-22T11:03:31.441Z,35.70
2022-10-22T11:06:01.641Z,50.60
2022-10-22T11:08:35.954Z,52.60
2022-10-22T11:14:16.087Z,50.70
2022-10-22T11:16:47.550Z,50.40
2022-10-22T11:19:46.137Z,47.60
2022-10-22T11:22:23.438Z,44.90
2022-10-22T11:25:19.976Z,32.20
2022-10-22T11:28:07.878Z,44.80
2022-10-22T11:30:39.282Z,45.40
2022-10-22T11:33:11.437Z,45.10
2022-10-22T11:35:42.535Z,44.50
2022-10-22T11:38:15.095Z,43.00
2022-10-22T11:41:09.638Z,41.40
2022-10-22T11:43:57.602Z,43.10
2022-10-22T11:46:26.371Z,40.60
2022-10-22T11:49:13.292Z,42.90
2022-10-22T11:51:42.548Z,41.80
2022-10-22T11:54:29.587Z,42.10
2022-10-22T11:57:16.628Z,38.70
2022-10-22T12:00:09.657Z,38.10
2022-10-22T12:02:44.346Z,39.60
2022-10-22T12:05:24.529Z,25.70
2022-10-22T12:08:02.642Z,35.70
2022-10-22T12:10:58.314Z,31.10
2022-10-22T12:13:30.227Z,30.30
2022-10-22T12:16:01.507Z,29.50
2022-10-22T12:18:34.659Z,30.50
2022-10-22T12:23:35.520Z,34.00
2022-10-22T12:26:05.241Z,22.90
2022-10-22T12:28:41.182Z,31.00
2022-10-22T12:31:16.519Z,30.10
2022-10-22T12:33:43.912Z,29.00
2022-10-22T12:36:18.534Z,17.80
2022-10-22T12:38:48.366Z,18.10
2022-10-22T12:41:15.481Z,23.40
2022-10-22T12:43:42.340Z,22.20
2022-10-22T12:46:13.774Z,17.00
2022-10-22T12:48:43.125Z,21.60
2022-10-22T12:51:19.570Z,21.00
2022-10-22T12:53:53.112Z,13.60
2022-10-22T12:56:29.153Z,22.20
2022-10-22T12:59:00.225Z,19.80
2022-10-22T13:01:36.515Z,22.00
2022-10-22T13:04:20.116Z,19.60
2022-10-22T13:06:52.571Z,17.50
2022-10-22T13:09:25.287Z,25.20
2022-10-22T13:12:02.293Z,25.40
2022-10-22T13:14:31.720Z,22.60
2022-10-22T13:17:15.270Z,17.00
2022-10-22T13:19:44.887Z,20.40
2022-10-22T13:22:31.110Z,13.70
2022-10-22T13:25:03.289Z,19.00
2022-10-22T13:27:31.858Z,13.80
2022-10-22T13:30:02.648Z,19.70
2022-10-22T13:32:33.227Z,20.30
2022-10-22T13:35:02.101Z,13.60
2022-10-22T13:37:31.402Z,19.50
2022-10-22T13:39:58.277Z,21.80
2022-10-22T13:42:25.444Z,14.50
2022-10-22T13:44:52.329Z,23.50
2022-10-22T13:47:26.773Z,21.90
2022-10-22T13:49:59.258Z,21.20
2022-10-22T13:52:35.110Z,13.60
2022-10-22T13:55:02.753Z,13.10
2022-10-22T13:57:29.663Z,19.40
2022-10-22T13:59:56.517Z,20.40
2022-10-22T14:02:24.741Z,21.50
2022-10-22T14:04:51.893Z,22.40
2022-10-22T14:07:19.187Z,25.70
2022-10-22T14:12:16.567Z,20.20
2022-10-22T14:14:43.877Z,23.50
2022-10-22T14:17:16.854Z,23.70
2022-10-22T14:19:48.402Z,23.50
2022-10-22T14:22:19.626Z,23.10
2022-10-22T14:24:47.202Z,23.60
2022-10-22T14:27:15.390Z,25.80
2022-10-22T14:29:42.265Z,24.70
2022-10-22T14:32:19.116Z,17.40
2022-10-22T14:34:46.882Z,26.40
2022-10-22T14:37:19.437Z,27.50
2022-10-22T14:39:51.711Z,21.90
2022-10-22T14:42:21.442Z,28.80
2022-10-22T14:44:48.382Z,27.70
2022-10-22T14:47:15.145Z,32.40
2022-10-22T14:57:11.304Z,33.30
2022-10-22T14:59:38.164Z,30.80
2022-10-22T15:02:05.097Z,30.00
2022-10-22T15:06:59.354Z,26.80
2022-10-22T15:11:53.353Z,27.50
2022-10-22T15:19:14.746Z,29.70
2022-10-22T15:24:09.298Z,30.60
2022-10-22T15:26:36.229Z,30.10
2022-10-22T15:29:04.701Z,21.90
2022-10-22T15:32:06.990Z,32.40
2022-10-22T15:34:35.213Z,22.50
2022-10-22T15:37:04.554Z,25.30
2022-10-22T15:39:32.091Z,25.30
2022-10-22T15:41:59.859Z,33.80
2022-10-22T15:44:29.534Z,34.70
2022-10-22T15:49:25.493Z,24.80
2022-10-22T15:54:23.377Z,25.70
2022-10-22T15:56:50.255Z,36.90
2022-10-22T15:59:17.628Z,31.00
2022-10-22T16:06:42.541Z,40.60
2022-10-22T16:09:13.009Z,31.70
2022-10-22T16:11:40.419Z,28.50
2022-10-22T16:16:39.465Z,29.30
2022-10-22T16:19:06.508Z,43.40
2022-10-22T16:24:06.004Z,40.30
2022-10-22T16:29:01.127Z,45.90
2022-10-22T16:33:55.718Z,43.80
2022-10-22T16:41:19.654Z,47.40
2022-10-22T16:43:49.077Z,48.70
2022-10-22T16:46:18.553Z,48.50
2022-10-22T16:48:49.652Z,48.70
2022-10-22T16:51:19.920Z,49.00
2022-10-22T16:56:16.021Z,51.00
2022-10-22T16:58:48.561Z,36.40
2022-10-22T17:01:18.130Z,36.70
2022-10-22T17:03:45.987Z,50.70
2022-10-22T17:08:41.466Z,37.40
2022-10-22T17:11:20.108Z,52.70
2022-10-22T17:13:49.017Z,38.20
2022-10-22T17:16:17.710Z,38.30
2022-10-22T17:21:18.906Z,38.40
2022-10-22T17:26:23.677Z,39.60
2022-10-22T17:31:23.540Z,45.60
2022-10-22T17:33:52.634Z,39.20
2022-10-22T17:36:20.500Z,54.80
2022-10-22T17:38:52.468Z,39.20
2022-10-22T17:41:22.723Z,48.00
2022-10-22T17:43:49.744Z,55.40
2022-10-22T17:46:24.728Z,40.20
2022-10-22T17:48:59.916Z,46.10
2022-10-22T17:51:28.157Z,40.60
2022-10-22T17:56:25.105Z,40.70
2022-10-22T18:01:28.510Z,49.50
2022-10-22T18:03:59.771Z,45.60
2022-10-22T18:06:27.005Z,56.80
2022-10-22T18:11:27.660Z,41.00
2022-10-22T18:13:56.797Z,41.10
2022-10-22T18:18:53.842Z,56.60
2022-10-22T18:26:19.336Z,56.70
2022-10-22T18:31:22.578Z,56.50
2022-10-22T18:33:50.212Z,41.90
2022-10-22T18:36:20.346Z,42.10
2022-10-22T18:38:56.351Z,41.60
2022-10-22T18:41:24.073Z,41.90
2022-10-22T18:43:56.223Z,58.50
2022-10-22T18:48:54.661Z,42.40
2022-10-22T18:54:11.359Z,42.30
2022-10-22T18:59:19.380Z,43.10
2022-10-22T19:06:45.285Z,43.20
2022-10-22T19:09:13.843Z,49.70
2022-10-22T19:11:40.787Z,55.50
2022-10-22T19:19:07.011Z,43.80
2022-10-22T19:26:29.837Z,43.60
2022-10-22T19:28:58.401Z,58.90
2022-10-22T19:31:27.061Z,43.90
2022-10-22T19:36:25.294Z,44.20
2022-10-22T19:41:21.345Z,44.40
2022-10-22T19:43:51.107Z,44.60
2022-10-22T19:46:19.011Z,44.20
2022-10-22T19:51:20.611Z,44.50
2022-10-22T19:56:20.388Z,44.90
2022-10-22T19:58:47.737Z,44.70
2022-10-22T20:01:16.310Z,45.00
2022-10-22T20:06:12.070Z,45.10
2022-10-22T20:08:39.386Z,44.60
2022-10-22T20:11:36.364Z,48.70
2022-10-22T20:19:03.540Z,60.70
2022-10-22T20:26:28.267Z,45.60
2022-10-22T20:28:56.702Z,48.70
2022-10-22T20:31:27.082Z,45.80
2022-10-22T20:34:00.049Z,60.80
2022-10-22T20:36:28.721Z,61.90
2022-10-22T20:39:01.147Z,53.70
2022-10-22T20:46:29.267Z,61.30
2022-10-22T20:49:01.544Z,61.90
2022-10-22T20:51:29.135Z,53.70
2022-10-22T20:56:24.044Z,61.50
2022-10-22T21:03:52.665Z,46.90
2022-10-22T21:06:23.021Z,62.10
2022-10-22T21:08:51.333Z,47.20
2022-10-22T21:11:19.420Z,46.90
2022-10-22T21:16:15.278Z,62.40
2022-10-22T21:21:10.577Z,62.30
2022-10-22T21:23:37.510Z,62.90
2022-10-22T21:26:05.470Z,47.50
2022-10-22T21:28:37.132Z,61.80
2022-10-22T21:31:08.277Z,48.10
2022-10-22T21:33:39.549Z,47.10
2022-10-22T21:36:08.903Z,52.00
2022-10-22T21:38:36.849Z,48.00
2022-10-22T21:41:08.558Z,51.90
2022-10-22T21:43:38.221Z,63.70
2022-10-22T21:46:10.131Z,64.60
2022-10-22T21:48:38.054Z,48.30
2022-10-22T21:51:12.764Z,48.30
2022-10-22T21:56:07.731Z,63.50
2022-10-22T21:58:35.648Z,48.50
2022-10-22T22:03:30.318Z,64.20
2022-10-22T22:06:01.723Z,63.90
2022-10-22T22:11:23.555Z,48.30
2022-10-22T22:13:51.616Z,65.30
2022-10-22T22:16:28.629Z,64.40
2022-10-22T22:18:58.464Z,49.50
2022-10-22T22:26:25.474Z,49.60
2022-10-22T22:28:56.118Z,49.20
2022-10-22T22:31:29.487Z,49.90
2022-10-22T22:34:06.811Z,60.60
2022-10-22T22:36:39.698Z,50.00
2022-10-22T22:39:09.139Z,58.50
2022-10-22T22:56:25.331Z,49.80
2022-10-22T23:01:26.967Z,50.00
2022-10-22T23:03:57.132Z,50.70
2022-10-22T23:06:25.744Z,50.80
2022-10-22T23:08:54.086Z,50.40
2022-10-22T23:11:22.446Z,60.20
2022-10-22T23:13:54.457Z,66.90
2022-10-22T23:16:24.148Z,51.00
2022-10-22T23:18:53.405Z,50.90
2022-10-22T23:21:32.116Z,51.10
2022-10-22T23:24:01.817Z,66.80
2022-10-22T23:26:35.413Z,51.10
2022-10-22T23:29:07.133Z,50.90
2022-10-22T23:31:34.541Z,66.70
2022-10-22T23:34:01.294Z,65.90
2022-10-22T23:36:28.686Z,67.20
2022-10-22T23:38:55.770Z,66.40
2022-10-22T23:43:50.941Z,67.10
2022-10-22T23:46:17.754Z,64.60
2022-10-22T23:48:45.148Z,51.10
2022-10-22T23:51:15.582Z,51.40
2022-10-22T23:53:43.935Z,51.40
2022-10-22T23:56:14.330Z,67.70
2022-10-22T23:58:42.335Z,51.10
